This is the latest recevied weather packets stored in our database for station/object KA7KDX-4. If no packets are shown the sender has not sent any weather packets the latest 10 day(s).
| Time | Temp. | Humidity | Pressure | Rain* | Wind** | Luminosity | Snow |
|---|---|---|---|---|---|---|---|
| 1777778706 | 14.44° C | 33% | 1012 hPa | 0 mm | - | - | - |
| 1777778406 | 14.44° C | 34% | 1012 hPa | 0 mm | - | - | - |
| 1777778106 | 14.44° C | 34% | 1012 hPa | 0 mm | - | - | - |
| 1777777806 | 15° C | 33% | 1011.8 hPa | 0 mm | - | - | - |
| 1777777505 | 15.56° C | 33% | 1011.6 hPa | 0 mm | - | - | - |
| 1777777205 | 15.56° C | 31% | 1011.4 hPa | 0 mm | - | - | - |
| 1777776905 | 16.11° C | 31% | 1011.3 hPa | 0 mm | - | - | - |
| 1777776605 | 16.67° C | 30% | 1010.9 hPa | 0 mm | - | - | - |
| 1777776305 | 17.22° C | 29% | 1010.6 hPa | 0 mm | - | - | - |
| 1777776006 | 17.78° C | 27% | 1010.2 hPa | 0 mm | - | - | - |
| 1777775706 | 18.33° C | 27% | 1010 hPa | 0 mm | - | - | - |
| 1777775406 | 18.33° C | 26% | 1009.8 hPa | 0 mm | - | - | - |
| 1777775106 | 18.89° C | 25% | 1009.6 hPa | 0 mm | - | - | - |
| 1777774805 | 18.89° C | 25% | 1009.5 hPa | 0 mm | - | - | - |
| 1777774505 | 18.89° C | 24% | 1009.4 hPa | 0 mm | - | - | - |
| 1777774205 | 18.89° C | 24% | 1009.3 hPa | 0 mm | - | - | - |
| 1777773905 | 19.44° C | 25% | 1009.2 hPa | 0 mm | - | - | - |
| 1777773605 | 19.44° C | 24% | 1009.1 hPa | 0 mm | - | - | - |
| 1777773306 | 19.44° C | 24% | 1009.1 hPa | 0 mm | - | - | - |
| 1777773006 | 19.44° C | 23% | 1009 hPa | 0 mm | - | - | - |
| 1777772706 | 19.44° C | 23% | 1009 hPa | 0 mm | - | - | - |
| 1777772406 | 20° C | 23% | 1008.9 hPa | 0 mm | - | - | - |
| 1777772106 | 20° C | 22% | 1008.9 hPa | 0 mm | - | - | - |
| 1777771805 | 20° C | 22% | 1008.9 hPa | 0 mm | - | - | - |
| 1777771505 | 20° C | 23% | 1008.9 hPa | 0 mm | - | - | - |
* Rain latest hour (hover to see other rain measurements)
** Current wind speed in m/s (hover to see current wind gust speed)